sensor_id;sensor_type;location;lat;lon;timestamp;pressure;altitude;pressure_sealevel;temperature;humidity
70815;BME280;58428;49.478;10.986;2023-03-17T00:01:50;98440.81;;;4.31;100.00
70815;BME280;58428;49.478;10.986;2023-03-17T00:04:18;98439.22;;;4.30;100.00
70815;BME280;58428;49.478;10.986;2023-03-17T00:06:44;98442.69;;;4.30;100.00
70815;BME280;58428;49.478;10.986;2023-03-17T00:09:15;98439.44;;;4.33;100.00
70815;BME280;58428;49.478;10.986;2023-03-17T00:11:42;98444.00;;;4.33;100.00
70815;BME280;58428;49.478;10.986;2023-03-17T00:14:08;98435.72;;;4.29;100.00
70815;BME280;58428;49.478;10.986;2023-03-17T00:16:37;98425.59;;;4.26;100.00
70815;BME280;58428;49.478;10.986;2023-03-17T00:19:05;98430.38;;;4.29;100.00
70815;BME280;58428;49.478;10.986;2023-03-17T00:21:32;98437.84;;;4.32;100.00
70815;BME280;58428;49.478;10.986;2023-03-17T00:24:01;98428.19;;;4.31;100.00
70815;BME280;58428;49.478;10.986;2023-03-17T00:26:32;98424.44;;;4.32;100.00
70815;BME280;58428;49.478;10.986;2023-03-17T00:28:57;98427.13;;;4.32;100.00
70815;BME280;58428;49.478;10.986;2023-03-17T00:31:24;98419.59;;;4.34;100.00
70815;BME280;58428;49.478;10.986;2023-03-17T00:33:53;98420.91;;;4.37;100.00
70815;BME280;58428;49.478;10.986;2023-03-17T00:36:25;98411.00;;;4.37;100.00
70815;BME280;58428;49.478;10.986;2023-03-17T00:38:52;98415.84;;;4.35;100.00
70815;BME280;58428;49.478;10.986;2023-03-17T00:41:18;98420.13;;;4.36;100.00
70815;BME280;58428;49.478;10.986;2023-03-17T00:43:44;98416.34;;;4.37;100.00
70815;BME280;58428;49.478;10.986;2023-03-17T00:46:33;98415.78;;;4.40;100.00
70815;BME280;58428;49.478;10.986;2023-03-17T00:49:15;98398.06;;;4.44;100.00
70815;BME280;58428;49.478;10.986;2023-03-17T00:51:44;98390.03;;;4.44;100.00
70815;BME280;58428;49.478;10.986;2023-03-17T00:54:12;98394.00;;;4.46;100.00
70815;BME280;58428;49.478;10.986;2023-03-17T00:56:40;98384.06;;;4.47;100.00
70815;BME280;58428;49.478;10.986;2023-03-17T01:01:41;98382.72;;;4.49;100.00
70815;BME280;58428;49.478;10.986;2023-03-17T01:04:09;98373.03;;;4.53;100.00
70815;BME280;58428;49.478;10.986;2023-03-17T01:06:36;98371.94;;;4.54;100.00
70815;BME280;58428;49.478;10.986;2023-03-17T01:09:03;98362.59;;;4.52;100.00
70815;BME280;58428;49.478;10.986;2023-03-17T01:11:29;98358.03;;;4.52;100.00
70815;BME280;58428;49.478;10.986;2023-03-17T01:13:58;98360.19;;;4.50;100.00
70815;BME280;58428;49.478;10.986;2023-03-17T01:16:23;98357.00;;;4.48;100.00
70815;BME280;58428;49.478;10.986;2023-03-17T01:18:49;98356.22;;;4.48;100.00
70815;BME280;58428;49.478;10.986;2023-03-17T01:21:14;98350.88;;;4.48;100.00
70815;BME280;58428;49.478;10.986;2023-03-17T01:23:42;98350.88;;;4.48;100.00
70815;BME280;58428;49.478;10.986;2023-03-17T01:26:09;98354.09;;;4.45;100.00
70815;BME280;58428;49.478;10.986;2023-03-17T01:28:38;98349.06;;;4.43;100.00
70815;BME280;58428;49.478;10.986;2023-03-17T01:31:03;98358.66;;;4.44;100.00
70815;BME280;58428;49.478;10.986;2023-03-17T01:33:30;98357.09;;;4.43;100.00
70815;BME280;58428;49.478;10.986;2023-03-17T01:35:57;98353.91;;;4.41;100.00
70815;BME280;58428;49.478;10.986;2023-03-17T01:38:25;98350.22;;;4.38;100.00
70815;BME280;58428;49.478;10.986;2023-03-17T01:40:52;98348.38;;;4.33;100.00
70815;BME280;58428;49.478;10.986;2023-03-17T01:43:24;98357.00;;;4.30;100.00
70815;BME280;58428;49.478;10.986;2023-03-17T01:54:03;98343.16;;;4.23;100.00
70815;BME280;58428;49.478;10.986;2023-03-17T01:56:29;98338.66;;;4.19;100.00
70815;BME280;58428;49.478;10.986;2023-03-17T01:58:58;98335.75;;;4.15;100.00
70815;BME280;58428;49.478;10.986;2023-03-17T02:01:30;98333.31;;;4.19;100.00
70815;BME280;58428;49.478;10.986;2023-03-17T02:03:58;98337.56;;;4.20;100.00
70815;BME280;58428;49.478;10.986;2023-03-17T02:06:24;98334.59;;;4.21;100.00
70815;BME280;58428;49.478;10.986;2023-03-17T02:08:53;98328.47;;;4.21;100.00
70815;BME280;58428;49.478;10.986;2023-03-17T02:11:19;98324.69;;;4.22;100.00
70815;BME280;58428;49.478;10.986;2023-03-17T02:13:47;98330.88;;;4.22;100.00
70815;BME280;58428;49.478;10.986;2023-03-17T02:16:15;98323.66;;;4.18;100.00
70815;BME280;58428;49.478;10.986;2023-03-17T02:18:40;98325.84;;;4.16;100.00
70815;BME280;58428;49.478;10.986;2023-03-17T02:23:54;98317.25;;;4.19;100.00
70815;BME280;58428;49.478;10.986;2023-03-17T02:26:24;98313.47;;;4.20;100.00
70815;BME280;58428;49.478;10.986;2023-03-17T02:28:51;98309.72;;;4.21;100.00
70815;BME280;58428;49.478;10.986;2023-03-17T02:31:19;98307.28;;;4.24;100.00
70815;BME280;58428;49.478;10.986;2023-03-17T02:33:45;98306.97;;;4.26;100.00
70815;BME280;58428;49.478;10.986;2023-03-17T02:36:10;98309.94;;;4.24;100.00
70815;BME280;58428;49.478;10.986;2023-03-17T02:38:37;98303.50;;;4.25;100.00
70815;BME280;58428;49.478;10.986;2023-03-17T02:41:07;98294.69;;;4.25;100.00
70815;BME280;58428;49.478;10.986;2023-03-17T02:43:35;98301.69;;;4.21;100.00
70815;BME280;58428;49.478;10.986;2023-03-17T02:46:01;98306.78;;;4.22;100.00
70815;BME280;58428;49.478;10.986;2023-03-17T02:48:28;98303.88;;;4.19;100.00
70815;BME280;58428;49.478;10.986;2023-03-17T02:50:54;98300.69;;;4.17;100.00
70815;BME280;58428;49.478;10.986;2023-03-17T02:53:19;98312.16;;;4.17;100.00
70815;BME280;58428;49.478;10.986;2023-03-17T02:55:45;98302.75;;;4.20;100.00
70815;BME280;58428;49.478;10.986;2023-03-17T02:58:11;98309.13;;;4.24;100.00
70815;BME280;58428;49.478;10.986;2023-03-17T03:00:37;98306.69;;;4.27;100.00
70815;BME280;58428;49.478;10.986;2023-03-17T03:03:03;98299.53;;;4.23;100.00
70815;BME280;58428;49.478;10.986;2023-03-17T03:05:28;98296.91;;;4.18;100.00
70815;BME280;58428;49.478;10.986;2023-03-17T03:07:54;98301.47;;;4.17;100.00
70815;BME280;58428;49.478;10.986;2023-03-17T03:10:21;98295.88;;;4.14;100.00
70815;BME280;58428;49.478;10.986;2023-03-17T03:12:46;98301.22;;;4.14;100.00
70815;BME280;58428;49.478;10.986;2023-03-17T03:15:11;98303.13;;;4.13;100.00
70815;BME280;58428;49.478;10.986;2023-03-17T03:17:37;98303.19;;;4.08;100.00
70815;BME280;58428;49.478;10.986;2023-03-17T03:20:04;98303.03;;;4.00;100.00
70815;BME280;58428;49.478;10.986;2023-03-17T03:22:30;98302.78;;;3.97;100.00
70815;BME280;58428;49.478;10.986;2023-03-17T03:24:57;98298.78;;;3.99;100.00
70815;BME280;58428;49.478;10.986;2023-03-17T03:27:25;98294.72;;;4.02;100.00
70815;BME280;58428;49.478;10.986;2023-03-17T03:30:00;98300.34;;;4.00;100.00
70815;BME280;58428;49.478;10.986;2023-03-17T03:32:27;98290.16;;;4.02;100.00
70815;BME280;58428;49.478;10.986;2023-03-17T03:34:54;98279.41;;;4.07;100.00
70815;BME280;58428;49.478;10.986;2023-03-17T03:37:19;98288.34;;;3.98;100.00
70815;BME280;58428;49.478;10.986;2023-03-17T03:39:45;98290.75;;;3.99;100.00
70815;BME280;58428;49.478;10.986;2023-03-17T03:42:11;98288.25;;;4.02;100.00
70815;BME280;58428;49.478;10.986;2023-03-17T03:44:38;98288.56;;;4.01;100.00
70815;BME280;58428;49.478;10.986;2023-03-17T03:47:04;98290.44;;;4.01;100.00
70815;BME280;58428;49.478;10.986;2023-03-17T03:49:29;98280.31;;;3.98;100.00
70815;BME280;58428;49.478;10.986;2023-03-17T03:51:54;98278.44;;;3.98;100.00
70815;BME280;58428;49.478;10.986;2023-03-17T03:54:21;98269.03;;;4.01;100.00
70815;BME280;58428;49.478;10.986;2023-03-17T03:56:47;98271.19;;;3.99;100.00
70815;BME280;58428;49.478;10.986;2023-03-17T03:59:12;98286.72;;;3.97;100.00
70815;BME280;58428;49.478;10.986;2023-03-17T04:04:43;98287.88;;;3.91;100.00
70815;BME280;58428;49.478;10.986;2023-03-17T04:07:08;98275.00;;;3.93;100.00
70815;BME280;58428;49.478;10.986;2023-03-17T04:09:35;98271.63;;;3.87;100.00
70815;BME280;58428;49.478;10.986;2023-03-17T04:12:02;98274.81;;;3.89;100.00
70815;BME280;58428;49.478;10.986;2023-03-17T04:14:28;98275.88;;;3.88;100.00
70815;BME280;58428;49.478;10.986;2023-03-17T04:16:54;98275.09;;;3.88;100.00
70815;BME280;58428;49.478;10.986;2023-03-17T04:25:19;98286.94;;;3.82;100.00
70815;BME280;58428;49.478;10.986;2023-03-17T04:27:51;98269.78;;;3.83;100.00
70815;BME280;58428;49.478;10.986;2023-03-17T04:30:16;98262.84;;;3.82;100.00
70815;BME280;58428;49.478;10.986;2023-03-17T04:32:45;98258.03;;;3.84;100.00
70815;BME280;58428;49.478;10.986;2023-03-17T04:35:16;98251.56;;;3.85;100.00
70815;BME280;58428;49.478;10.986;2023-03-17T04:37:50;98254.84;;;3.82;100.00
70815;BME280;58428;49.478;10.986;2023-03-17T04:40:17;98257.50;;;3.82;100.00
70815;BME280;58428;49.478;10.986;2023-03-17T04:42:44;98254.31;;;3.80;100.00
70815;BME280;58428;49.478;10.986;2023-03-17T04:45:12;98252.16;;;3.82;100.00
70815;BME280;58428;49.478;10.986;2023-03-17T04:47:41;98248.09;;;3.84;100.00
70815;BME280;58428;49.478;10.986;2023-03-17T04:50:08;98256.63;;;3.86;100.00
70815;BME280;58428;49.478;10.986;2023-03-17T04:52:35;98262.34;;;3.80;100.00
70815;BME280;58428;49.478;10.986;2023-03-17T04:55:04;98255.66;;;3.77;100.00
70815;BME280;58428;49.478;10.986;2023-03-17T04:57:29;98270.41;;;3.75;100.00
70815;BME280;58428;49.478;10.986;2023-03-17T04:59:55;98269.69;;;3.69;100.00
70815;BME280;58428;49.478;10.986;2023-03-17T05:02:22;98269.91;;;3.73;100.00
70815;BME280;58428;49.478;10.986;2023-03-17T05:04:48;98272.06;;;3.71;100.00
70815;BME280;58428;49.478;10.986;2023-03-17T05:07:14;98282.78;;;3.71;100.00
70815;BME280;58428;49.478;10.986;2023-03-17T05:09:40;98274.75;;;3.71;100.00
70815;BME280;58428;49.478;10.986;2023-03-17T05:12:06;98266.22;;;3.69;100.00
70815;BME280;58428;49.478;10.986;2023-03-17T05:14:38;98260.94;;;3.64;100.00
70815;BME280;58428;49.478;10.986;2023-03-17T05:17:18;98252.09;;;3.64;100.00
70815;BME280;58428;49.478;10.986;2023-03-17T05:19:49;98247.34;;;3.61;100.00
70815;BME280;58428;49.478;10.986;2023-03-17T05:22:15;98248.34;;;3.65;100.00
70815;BME280;58428;49.478;10.986;2023-03-17T05:24:52;98262.28;;;3.62;100.00
70815;BME280;58428;49.478;10.986;2023-03-17T05:27:20;98260.47;;;3.57;100.00
70815;BME280;58428;49.478;10.986;2023-03-17T05:29:48;98262.69;;;3.50;100.00
70815;BME280;58428;49.478;10.986;2023-03-17T05:32:14;98264.63;;;3.45;100.00
70815;BME280;58428;49.478;10.986;2023-03-17T05:34:40;98264.63;;;3.45;100.00
70815;BME280;58428;49.478;10.986;2023-03-17T05:37:08;98265.19;;;3.42;100.00
70815;BME280;58428;49.478;10.986;2023-03-17T05:39:43;98252.16;;;3.35;100.00
70815;BME280;58428;49.478;10.986;2023-03-17T05:42:13;98260.44;;;3.39;100.00
70815;BME280;58428;49.478;10.986;2023-03-17T05:45:03;98267.63;;;3.38;100.00
70815;BME280;58428;49.478;10.986;2023-03-17T05:50:33;98266.59;;;3.34;100.00
70815;BME280;58428;49.478;10.986;2023-03-17T05:53:33;98265.78;;;3.39;100.00
70815;BME280;58428;49.478;10.986;2023-03-17T05:56:25;98264.97;;;3.38;100.00
70815;BME280;58428;49.478;10.986;2023-03-17T05:59:00;98262.50;;;3.42;100.00
70815;BME280;58428;49.478;10.986;2023-03-17T06:01:52;98262.47;;;3.47;100.00
70815;BME280;58428;49.478;10.986;2023-03-17T06:04:43;98252.50;;;3.52;100.00
70815;BME280;58428;49.478;10.986;2023-03-17T06:07:34;98251.66;;;3.57;100.00
70815;BME280;58428;49.478;10.986;2023-03-17T06:10:15;98247.88;;;3.58;100.00
70815;BME280;58428;49.478;10.986;2023-03-17T06:15:49;98246.69;;;3.68;100.00
70815;BME280;58428;49.478;10.986;2023-03-17T06:18:29;98232.19;;;3.74;100.00
70815;BME280;58428;49.478;10.986;2023-03-17T06:21:14;98231.03;;;3.80;100.00
70815;BME280;58428;49.478;10.986;2023-03-17T06:23:59;98226.69;;;3.84;100.00
70815;BME280;58428;49.478;10.986;2023-03-17T06:30:04;98229.53;;;3.93;100.00
70815;BME280;58428;49.478;10.986;2023-03-17T06:38:42;98224.69;;;4.13;100.00
70815;BME280;58428;49.478;10.986;2023-03-17T06:41:10;98232.38;;;4.19;100.00
70815;BME280;58428;49.478;10.986;2023-03-17T06:43:50;98226.94;;;4.24;100.00
70815;BME280;58428;49.478;10.986;2023-03-17T06:47:05;98226.06;;;4.29;100.00
70815;BME280;58428;49.478;10.986;2023-03-17T06:50:02;98241.25;;;4.33;100.00
70815;BME280;58428;49.478;10.986;2023-03-17T06:53:00;98240.47;;;4.33;100.00
70815;BME280;58428;49.478;10.986;2023-03-17T06:58:55;98252.91;;;4.42;100.00
70815;BME280;58428;49.478;10.986;2023-03-17T07:01:48;98263.75;;;4.50;100.00
70815;BME280;58428;49.478;10.986;2023-03-17T07:04:23;98262.31;;;4.58;100.00
70815;BME280;58428;49.478;10.986;2023-03-17T07:07:06;98280.19;;;4.62;100.00
70815;BME280;58428;49.478;10.986;2023-03-17T07:09:50;98276.00;;;4.75;100.00
70815;BME280;58428;49.478;10.986;2023-03-17T07:12:57;98272.78;;;4.91;100.00
70815;BME280;58428;49.478;10.986;2023-03-17T07:16:02;98271.22;;;5.03;100.00
70815;BME280;58428;49.478;10.986;2023-03-17T07:18:50;98271.97;;;5.22;100.00
70815;BME280;58428;49.478;10.986;2023-03-17T07:21:50;98263.03;;;5.26;100.00
70815;BME280;58428;49.478;10.986;2023-03-17T07:24:56;98271.69;;;5.37;100.00
70815;BME280;58428;49.478;10.986;2023-03-17T07:32:54;98256.41;;;5.50;100.00
70815;BME280;58428;49.478;10.986;2023-03-17T07:39:14;98240.03;;;5.79;100.00
70815;BME280;58428;49.478;10.986;2023-03-17T07:42:08;98244.91;;;5.90;100.00
70815;BME280;58428;49.478;10.986;2023-03-17T07:45:05;98236.47;;;5.96;100.00
70815;BME280;58428;49.478;10.986;2023-03-17T07:48:19;98242.59;;;6.10;100.00
70815;BME280;58428;49.478;10.986;2023-03-17T07:51:20;98236.28;;;6.28;100.00
70815;BME280;58428;49.478;10.986;2023-03-17T07:54:22;98236.44;;;6.45;100.00
70815;BME280;58428;49.478;10.986;2023-03-17T08:00:25;98224.97;;;6.74;100.00
70815;BME280;58428;49.478;10.986;2023-03-17T08:03:09;98224.91;;;6.88;100.00
70815;BME280;58428;49.478;10.986;2023-03-17T08:05:59;98217.56;;;7.01;100.00
70815;BME280;58428;49.478;10.986;2023-03-17T08:20:04;98202.03;;;7.59;100.00
70815;BME280;58428;49.478;10.986;2023-03-17T08:22:57;98197.75;;;7.66;100.00
70815;BME280;58428;49.478;10.986;2023-03-17T08:29:27;98195.13;;;7.91;100.00
70815;BME280;58428;49.478;10.986;2023-03-17T08:32:01;98193.25;;;7.92;100.00
70815;BME280;58428;49.478;10.986;2023-03-17T08:34:30;98188.03;;;8.04;100.00
70815;BME280;58428;49.478;10.986;2023-03-17T08:37:16;98177.00;;;8.13;100.00
70815;BME280;58428;49.478;10.986;2023-03-17T08:40:41;98175.09;;;8.31;100.00
70815;BME280;58428;49.478;10.986;2023-03-17T08:43:28;98180.66;;;8.43;100.00
70815;BME280;58428;49.478;10.986;2023-03-17T08:46:32;98181.13;;;8.61;100.00
70815;BME280;58428;49.478;10.986;2023-03-17T08:49:47;98181.56;;;8.80;100.00
70815;BME280;58428;49.478;10.986;2023-03-17T09:04:16;98169.59;;;9.52;100.00
70815;BME280;58428;49.478;10.986;2023-03-17T09:06:45;98169.69;;;9.63;100.00
70815;BME280;58428;49.478;10.986;2023-03-17T09:09:19;98167.91;;;9.76;100.00
70815;BME280;58428;49.478;10.986;2023-03-17T09:12:19;98176.94;;;9.80;100.00
70815;BME280;58428;49.478;10.986;2023-03-17T09:25:41;98157.03;;;10.33;100.00
70815;BME280;58428;49.478;10.986;2023-03-17T09:28:20;98159.59;;;10.50;100.00
70815;BME280;58428;49.478;10.986;2023-03-17T09:30:56;98161.31;;;10.54;98.79
70815;BME280;58428;49.478;10.986;2023-03-17T09:33:52;98154.38;;;10.65;99.50
70815;BME280;58428;49.478;10.986;2023-03-17T09:36:45;98144.28;;;10.86;98.80
70815;BME280;58428;49.478;10.986;2023-03-17T09:39:26;98143.44;;;10.94;95.75
70815;BME280;58428;49.478;10.986;2023-03-17T09:43:09;98148.00;;;11.13;95.78
70815;BME280;58428;49.478;10.986;2023-03-17T09:45:40;98147.44;;;11.32;95.14
70815;BME280;58428;49.478;10.986;2023-03-17T09:48:42;98144.78;;;11.55;94.75
70815;BME280;58428;49.478;10.986;2023-03-17T09:51:19;98133.97;;;11.79;95.15
70815;BME280;58428;49.478;10.986;2023-03-17T09:54:10;98142.28;;;11.98;90.32
70815;BME280;58428;49.478;10.986;2023-03-17T09:57:09;98139.78;;;12.16;88.73
70815;BME280;58428;49.478;10.986;2023-03-17T10:00:22;98136.03;;;12.21;88.73
70815;BME280;58428;49.478;10.986;2023-03-17T10:03:08;98136.81;;;12.33;91.31
70815;BME280;58428;49.478;10.986;2023-03-17T10:05:52;98138.22;;;12.54;89.64
70815;BME280;58428;49.478;10.986;2023-03-17T10:08:32;98137.94;;;12.59;87.42
70815;BME280;58428;49.478;10.986;2023-03-17T10:11:29;98140.22;;;12.57;83.54
70815;BME280;58428;49.478;10.986;2023-03-17T10:14:17;98139.16;;;12.47;82.78
70815;BME280;58428;49.478;10.986;2023-03-17T10:22:28;98125.47;;;12.70;80.58
70815;BME280;58428;49.478;10.986;2023-03-17T10:25:04;98125.91;;;12.84;84.82
70815;BME280;58428;49.478;10.986;2023-03-17T10:27:56;98127.66;;;12.92;81.41
70815;BME280;58428;49.478;10.986;2023-03-17T10:31:29;98126.09;;;13.06;80.83
70815;BME280;58428;49.478;10.986;2023-03-17T10:34:30;98126.75;;;13.15;78.69
70815;BME280;58428;49.478;10.986;2023-03-17T10:37:21;98123.78;;;13.20;78.24
70815;BME280;58428;49.478;10.986;2023-03-17T10:40:37;98117.44;;;13.31;78.82
70815;BME280;58428;49.478;10.986;2023-03-17T10:43:26;98118.94;;;13.44;78.27
70815;BME280;58428;49.478;10.986;2023-03-17T10:46:02;98107.41;;;13.47;75.97
70815;BME280;58428;49.478;10.986;2023-03-17T10:48:36;98105.09;;;13.64;80.23
70815;BME280;58428;49.478;10.986;2023-03-17T10:51:12;98103.06;;;13.77;77.73
70815;BME280;58428;49.478;10.986;2023-03-17T10:53:59;98090.38;;;13.99;79.24
70815;BME280;58428;49.478;10.986;2023-03-17T10:56:32;98089.47;;;14.11;76.95
70815;BME280;58428;49.478;10.986;2023-03-17T10:59:05;98091.59;;;14.17;74.18
70815;BME280;58428;49.478;10.986;2023-03-17T11:01:52;98088.66;;;14.26;71.63
70815;BME280;58428;49.478;10.986;2023-03-17T11:04:37;98080.69;;;14.36;74.24
70815;BME280;58428;49.478;10.986;2023-03-17T11:07:16;98082.91;;;14.49;72.52
70815;BME280;58428;49.478;10.986;2023-03-17T11:09:57;98089.38;;;14.60;69.81
70815;BME280;58428;49.478;10.986;2023-03-17T11:12:54;98086.81;;;14.67;69.07
70815;BME280;58428;49.478;10.986;2023-03-17T11:15:35;98083.00;;;14.72;71.50
70815;BME280;58428;49.478;10.986;2023-03-17T11:18:35;98079.78;;;14.66;66.96
70815;BME280;58428;49.478;10.986;2023-03-17T11:24:20;98065.22;;;14.77;69.76
70815;BME280;58428;49.478;10.986;2023-03-17T11:27:30;98067.09;;;14.96;70.08
70815;BME280;58428;49.478;10.986;2023-03-17T11:32:56;98042.31;;;15.23;64.68
70815;BME280;58428;49.478;10.986;2023-03-17T11:35:54;98039.13;;;15.17;63.78
70815;BME280;58428;49.478;10.986;2023-03-17T12:05:41;98002.91;;;16.95;63.08
70815;BME280;58428;49.478;10.986;2023-03-17T12:11:04;98002.38;;;17.15;61.84
70815;BME280;58428;49.478;10.986;2023-03-17T12:31:11;97978.53;;;17.16;55.96
70815;BME280;58428;49.478;10.986;2023-03-17T12:34:37;97982.91;;;17.24;57.27
70815;BME280;58428;49.478;10.986;2023-03-17T12:37:38;97968.53;;;17.37;57.36
70815;BME280;58428;49.478;10.986;2023-03-17T13:01:06;97948.22;;;17.98;52.38
70815;BME280;58428;49.478;10.986;2023-03-17T13:04:14;97940.38;;;18.04;54.91
70815;BME280;58428;49.478;10.986;2023-03-17T13:07:23;97938.38;;;17.87;53.72
70815;BME280;58428;49.478;10.986;2023-03-17T13:26:15;97908.41;;;18.25;52.56
70815;BME280;58428;49.478;10.986;2023-03-17T13:35:16;97914.34;;;18.47;52.29
70815;BME280;58428;49.478;10.986;2023-03-17T13:57:47;97887.38;;;18.56;56.42
70815;BME280;58428;49.478;10.986;2023-03-17T14:00:56;97886.97;;;18.61;56.48
70815;BME280;58428;49.478;10.986;2023-03-17T14:06:54;97874.84;;;18.83;54.43
70815;BME280;58428;49.478;10.986;2023-03-17T14:33:55;97855.28;;;18.74;52.65
70815;BME280;58428;49.478;10.986;2023-03-17T14:36:39;97861.53;;;18.68;53.07
70815;BME280;58428;49.478;10.986;2023-03-17T14:39:27;97852.16;;;18.72;53.51
70815;BME280;58428;49.478;10.986;2023-03-17T14:42:02;97861.53;;;18.71;53.84
70815;BME280;58428;49.478;10.986;2023-03-17T14:44:49;97858.00;;;18.81;53.28
70815;BME280;58428;49.478;10.986;2023-03-17T14:47:31;97847.44;;;18.73;51.61
70815;BME280;58428;49.478;10.986;2023-03-17T14:53:32;97845.47;;;18.77;53.95
70815;BME280;58428;49.478;10.986;2023-03-17T14:59:35;97833.34;;;18.53;56.11
70815;BME280;58428;49.478;10.986;2023-03-17T15:02:22;97835.28;;;18.60;56.07
70815;BME280;58428;49.478;10.986;2023-03-17T15:05:01;97830.22;;;18.65;55.39
70815;BME280;58428;49.478;10.986;2023-03-17T15:07:43;97833.34;;;18.71;55.17
70815;BME280;58428;49.478;10.986;2023-03-17T15:10:24;97834.91;;;18.65;54.57
70815;BME280;58428;49.478;10.986;2023-03-17T15:13:10;97827.06;;;18.49;52.63
70815;BME280;58428;49.478;10.986;2023-03-17T15:15:39;97827.06;;;18.49;55.14
70815;BME280;58428;49.478;10.986;2023-03-17T15:18:14;97815.34;;;18.45;55.88
70815;BME280;58428;49.478;10.986;2023-03-17T15:21:17;97814.53;;;18.52;55.66
70815;BME280;58428;49.478;10.986;2023-03-17T15:27:14;97811.41;;;18.53;54.45
70815;BME280;58428;49.478;10.986;2023-03-17T15:29:40;97808.28;;;18.48;57.17
70815;BME280;58428;49.478;10.986;2023-03-17T15:35:00;97803.59;;;18.45;58.72
70815;BME280;58428;49.478;10.986;2023-03-17T15:37:28;97808.69;;;18.40;58.18
70815;BME280;58428;49.478;10.986;2023-03-17T15:39:57;97807.09;;;18.14;58.03
70815;BME280;58428;49.478;10.986;2023-03-17T15:42:26;97803.53;;;18.07;59.55
70815;BME280;58428;49.478;10.986;2023-03-17T15:45:02;97803.91;;;18.05;59.59
70815;BME280;58428;49.478;10.986;2023-03-17T15:47:34;97816.78;;;17.95;60.64
70815;BME280;58428;49.478;10.986;2023-03-17T15:50:25;97815.19;;;17.80;58.39
70815;BME280;58428;49.478;10.986;2023-03-17T15:52:55;97814.38;;;17.69;60.06
70815;BME280;58428;49.478;10.986;2023-03-17T15:55:26;97819.44;;;17.67;61.73
70815;BME280;58428;49.478;10.986;2023-03-17T15:58:03;97810.47;;;17.70;62.14
70815;BME280;58428;49.478;10.986;2023-03-17T16:00:32;97814.38;;;17.66;62.22
70815;BME280;58428;49.478;10.986;2023-03-17T16:03:17;97817.84;;;17.59;61.68
70815;BME280;58428;49.478;10.986;2023-03-17T16:05:49;97810.38;;;17.49;62.32
70815;BME280;58428;49.478;10.986;2023-03-17T16:08:18;97813.88;;;17.46;62.45
70815;BME280;58428;49.478;10.986;2023-03-17T16:10:54;97809.91;;;17.33;61.59
70815;BME280;58428;49.478;10.986;2023-03-17T16:13:31;97804.03;;;17.25;63.26
70815;BME280;58428;49.478;10.986;2023-03-17T16:16:07;97806.63;;;17.11;62.57
70815;BME280;58428;49.478;10.986;2023-03-17T16:18:43;97800.31;;;16.96;64.34
70815;BME280;58428;49.478;10.986;2023-03-17T16:21:14;97802.56;;;16.88;64.31
70815;BME280;58428;49.478;10.986;2023-03-17T16:23:42;97796.66;;;16.75;65.62
70815;BME280;58428;49.478;10.986;2023-03-17T16:26:17;97802.38;;;16.60;65.63
70815;BME280;58428;49.478;10.986;2023-03-17T16:28:47;97794.50;;;16.48;66.53
70815;BME280;58428;49.478;10.986;2023-03-17T16:31:27;97798.28;;;16.37;67.86
70815;BME280;58428;49.478;10.986;2023-03-17T16:34:21;97786.13;;;16.24;68.01
70815;BME280;58428;49.478;10.986;2023-03-17T16:36:55;97787.97;;;16.17;69.45
70815;BME280;58428;49.478;10.986;2023-03-17T16:39:26;97800.75;;;16.09;70.33
70815;BME280;58428;49.478;10.986;2023-03-17T16:42:33;97802.22;;;16.00;71.37
70815;BME280;58428;49.478;10.986;2023-03-17T16:44:59;97799.44;;;15.96;71.53
70815;BME280;58428;49.478;10.986;2023-03-17T16:47:27;97793.88;;;15.86;72.61
70815;BME280;58428;49.478;10.986;2023-03-17T16:49:55;97795.44;;;15.83;75.62
70815;BME280;58428;49.478;10.986;2023-03-17T16:52:21;97791.88;;;15.80;77.68
70815;BME280;58428;49.478;10.986;2023-03-17T16:54:54;97794.88;;;15.71;76.49
70815;BME280;58428;49.478;10.986;2023-03-17T16:57:27;97811.56;;;15.63;76.49
70815;BME280;58428;49.478;10.986;2023-03-17T17:00:04;97809.13;;;15.54;77.81
70815;BME280;58428;49.478;10.986;2023-03-17T17:02:32;97804.34;;;15.48;78.19
70815;BME280;58428;49.478;10.986;2023-03-17T17:05:08;97809.75;;;15.41;79.35
70815;BME280;58428;49.478;10.986;2023-03-17T17:30:49;97818.63;;;14.83;86.15
70815;BME280;58428;49.478;10.986;2023-03-17T17:33:17;97813.88;;;14.77;87.55
70815;BME280;58428;49.478;10.986;2023-03-17T17:35:43;97824.28;;;14.72;87.61
70815;BME280;58428;49.478;10.986;2023-03-17T17:38:15;97818.72;;;14.65;89.77
70815;BME280;58428;49.478;10.986;2023-03-17T17:40:41;97815.91;;;14.58;88.99
70815;BME280;58428;49.478;10.986;2023-03-17T17:43:08;97818.50;;;14.51;88.53
70815;BME280;58428;49.478;10.986;2023-03-17T17:45:33;97824.63;;;14.44;89.09
70815;BME280;58428;49.478;10.986;2023-03-17T17:48:00;97812.06;;;14.36;90.18
70815;BME280;58428;49.478;10.986;2023-03-17T17:50:28;97820.09;;;14.30;90.10
70815;BME280;58428;49.478;10.986;2023-03-17T17:52:54;97828.59;;;14.25;90.75
70815;BME280;58428;49.478;10.986;2023-03-17T17:55:27;97821.88;;;14.19;90.93
70815;BME280;58428;49.478;10.986;2023-03-17T17:57:56;97827.97;;;14.12;90.88
70815;BME280;58428;49.478;10.986;2023-03-17T18:00:21;97830.19;;;14.07;90.75
70815;BME280;58428;49.478;10.986;2023-03-17T18:02:49;97829.72;;;14.01;91.59
70815;BME280;58428;49.478;10.986;2023-03-17T18:05:15;97829.91;;;13.93;92.70
70815;BME280;58428;49.478;10.986;2023-03-17T18:07:43;97823.63;;;13.89;93.77
70815;BME280;58428;49.478;10.986;2023-03-17T18:10:17;97831.28;;;13.84;93.10
70815;BME280;58428;49.478;10.986;2023-03-17T18:12:46;97832.78;;;13.81;92.72
70815;BME280;58428;49.478;10.986;2023-03-17T18:15:12;97831.16;;;13.77;93.41
70815;BME280;58428;49.478;10.986;2023-03-17T18:17:38;97840.41;;;13.72;93.95